createdAt,value
2018-04-16T00:00:14.368Z,129.97
2018-04-16T00:02:42.635Z,125.63
2018-04-16T00:05:11.728Z,123.07
2018-04-16T00:07:39.969Z,127.87
2018-04-16T00:10:09.651Z,129.43
2018-04-16T00:12:38.553Z,124.33
2018-04-16T00:15:08.718Z,124.30
2018-04-16T00:17:36.994Z,121.57
2018-04-16T00:20:05.361Z,120.43
2018-04-16T00:22:34.752Z,115.50
2018-04-16T00:25:03.803Z,106.73
2018-04-16T00:27:33.637Z,99.53
2018-04-16T00:30:03.421Z,110.97
2018-04-16T00:35:42.706Z,108.70
2018-04-16T00:38:20.616Z,104.37
2018-04-16T00:40:57.072Z,114.77
2018-04-16T00:43:31.224Z,100.93
2018-04-16T00:46:13.138Z,111.83
2018-04-16T00:48:47.221Z,79.07
2018-04-16T00:51:24.350Z,107.07
2018-04-16T00:54:17.152Z,99.23
2018-04-16T00:56:50.878Z,101.40
2018-04-16T00:59:26.316Z,95.73
2018-04-16T01:02:00.465Z,85.03
2018-04-16T01:04:34.424Z,107.67
2018-04-16T01:07:12.397Z,110.40
2018-04-16T01:09:47.039Z,104.13
2018-04-16T01:12:21.119Z,102.37
2018-04-16T01:14:55.247Z,97.80
2018-04-16T01:17:29.418Z,92.10
2018-04-16T01:20:06.997Z,87.87
2018-04-16T01:22:41.237Z,97.67
2018-04-16T01:25:15.212Z,95.17
2018-04-16T01:27:52.627Z,94.33
2018-04-16T01:30:28.889Z,99.53
2018-04-16T01:33:03.695Z,97.97
2018-04-16T01:35:37.788Z,93.40
2018-04-16T01:38:11.662Z,106.17
2018-04-16T01:40:45.510Z,111.80
2018-04-16T01:43:22.833Z,105.43
2018-04-16T01:45:56.764Z,100.33
2018-04-16T01:48:32.674Z,98.37
2018-04-16T01:51:06.586Z,104.90
2018-04-16T01:53:40.869Z,107.23
2018-04-16T01:56:17.072Z,108.93
2018-04-16T01:58:51.210Z,108.30
2018-04-16T02:01:26.214Z,130.63
2018-04-16T02:04:01.765Z,111.37
2018-04-16T02:06:36.759Z,114.90
2018-04-16T02:09:11.991Z,121.27
2018-04-16T02:11:46.795Z,120.47
2018-04-16T02:14:22.657Z,110.17
2018-04-16T02:16:56.986Z,121.93
2018-04-16T02:19:30.936Z,113.43
2018-04-16T02:22:05.533Z,116.97
2018-04-16T02:27:21.825Z,126.37
2018-04-16T02:29:58.951Z,128.20
2018-04-16T02:32:32.847Z,123.70
2018-04-16T02:35:16.147Z,110.47
2018-04-16T02:37:51.446Z,116.17
2018-04-16T02:40:29.320Z,111.20
2018-04-16T02:43:03.526Z,106.73
2018-04-16T02:45:39.061Z,101.93
2018-04-16T02:48:12.982Z,102.80
2018-04-16T02:50:46.996Z,105.40
2018-04-16T02:53:20.899Z,106.33
2018-04-16T02:55:54.508Z,118.10
2018-04-16T02:58:29.594Z,124.77
2018-04-16T03:01:03.542Z,121.30
2018-04-16T03:03:38.100Z,123.97
2018-04-16T03:06:13.735Z,124.70
2018-04-16T03:08:47.713Z,121.90
2018-04-16T03:11:21.941Z,116.60
2018-04-16T03:13:59.318Z,122.30
2018-04-16T03:16:33.518Z,127.97
2018-04-16T03:19:07.472Z,114.13
2018-04-16T03:21:42.938Z,110.63
2018-04-16T03:24:16.744Z,119.40
2018-04-16T03:26:52.473Z,113.97
2018-04-16T03:29:26.570Z,111.33
2018-04-16T03:32:00.696Z,114.27
2018-04-16T03:34:35.139Z,118.00
2018-04-16T03:37:09.267Z,114.17
2018-04-16T03:39:44.101Z,106.33
2018-04-16T03:42:21.581Z,131.43
2018-04-16T03:44:56.428Z,131.43
2018-04-16T03:47:30.304Z,118.47
2018-04-16T03:50:06.390Z,116.27
2018-04-16T03:55:43.785Z,142.57
2018-04-16T03:58:15.220Z,142.50
2018-04-16T04:00:43.728Z,136.23
2018-04-16T04:03:13.212Z,155.27
2018-04-16T04:05:43.040Z,147.70
2018-04-16T04:08:11.932Z,154.20
2018-04-16T04:10:40.352Z,141.40
2018-04-16T04:13:08.985Z,150.80
2018-04-16T04:15:37.762Z,148.50
2018-04-16T04:18:09.237Z,150.13
2018-04-16T04:20:37.530Z,150.90
2018-04-16T04:23:23.973Z,150.00
2018-04-16T04:26:10.948Z,174.73
2018-04-16T04:28:58.589Z,141.33
2018-04-16T04:31:27.014Z,127.37
2018-04-16T04:33:55.692Z,138.10
2018-04-16T04:36:24.482Z,149.43
2018-04-16T04:38:55.686Z,152.40
2018-04-16T04:41:24.387Z,137.87
2018-04-16T04:43:54.884Z,144.90
2018-04-16T04:46:23.449Z,133.43
2018-04-16T04:48:56.350Z,132.53
2018-04-16T04:51:24.615Z,142.53
2018-04-16T04:53:53.467Z,123.90
2018-04-16T04:56:21.892Z,146.60
2018-04-16T04:58:50.496Z,138.27
2018-04-16T05:01:19.420Z,135.00
2018-04-16T05:03:49.416Z,131.60
2018-04-16T05:06:17.999Z,130.33
2018-04-16T05:08:46.900Z,128.27
2018-04-16T05:11:16.054Z,123.60
2018-04-16T05:13:45.015Z,134.20
2018-04-16T05:16:17.632Z,124.70
2018-04-16T05:18:46.265Z,123.80
2018-04-16T05:21:16.177Z,125.47
2018-04-16T05:23:45.263Z,161.53
2018-04-16T05:26:16.370Z,126.83
2018-04-16T05:28:46.332Z,117.80
2018-04-16T05:31:16.301Z,118.77
2018-04-16T05:33:46.541Z,120.70
2018-04-16T05:36:15.134Z,119.67
2018-04-16T05:38:48.564Z,122.37
2018-04-16T05:41:17.192Z,128.90
2018-04-16T05:43:47.826Z,128.97
2018-04-16T05:46:17.024Z,123.30
2018-04-16T05:48:46.616Z,124.43
2018-04-16T05:51:15.264Z,123.93
2018-04-16T05:53:45.537Z,123.67
2018-04-16T05:56:13.898Z,129.13
2018-04-16T05:58:42.465Z,120.60
2018-04-16T06:01:11.050Z,111.33
2018-04-16T06:03:40.312Z,126.10
2018-04-16T06:06:09.004Z,157.17
2018-04-16T06:08:39.938Z,148.33
2018-04-16T06:11:09.297Z,145.37
2018-04-16T06:13:39.798Z,152.07
2018-04-16T06:16:09.202Z,142.30
2018-04-16T06:18:39.727Z,138.00
2018-04-16T06:21:09.088Z,152.77
2018-04-16T06:23:48.369Z,136.87
2018-04-16T06:26:17.015Z,123.63
2018-04-16T06:28:46.585Z,123.83
2018-04-16T06:31:15.628Z,128.50
2018-04-16T06:33:44.247Z,123.43
2018-04-16T06:36:13.094Z,135.97
2018-04-16T06:38:42.219Z,130.87
2018-04-16T06:41:10.513Z,106.30
2018-04-16T06:43:39.549Z,115.37
2018-04-16T06:46:07.941Z,118.07
2018-04-16T06:48:38.501Z,126.10
2018-04-16T06:51:07.975Z,123.20
2018-04-16T06:53:39.346Z,126.57
2018-04-16T06:56:08.402Z,135.90
2018-04-16T06:58:39.515Z,132.03
2018-04-16T07:01:18.166Z,129.67
2018-04-16T07:03:48.291Z,133.80
2018-04-16T07:06:16.848Z,145.80
2018-04-16T07:08:46.250Z,117.73
2018-04-16T07:11:15.922Z,143.57
2018-04-16T07:13:45.525Z,138.13
2018-04-16T07:16:13.993Z,154.00
2018-04-16T07:18:42.786Z,142.90
2018-04-16T07:21:12.481Z,125.47
2018-04-16T07:23:42.049Z,111.23
2018-04-16T07:26:10.613Z,117.93
2018-04-16T07:28:49.534Z,120.70
2018-04-16T07:31:21.506Z,121.87
2018-04-16T07:33:50.462Z,112.10
2018-04-16T07:36:21.775Z,87.60
2018-04-16T07:41:38.416Z,117.00
2018-04-16T07:44:06.835Z,111.50
2018-04-16T07:46:35.800Z,107.57
2018-04-16T07:49:06.217Z,109.90
2018-04-16T07:51:34.992Z,96.67
2018-04-16T07:54:05.197Z,90.83
2018-04-16T07:56:33.767Z,100.43
2018-04-16T07:59:02.588Z,130.57
2018-04-16T08:01:31.212Z,110.47
2018-04-16T08:04:02.195Z,123.03
2018-04-16T08:06:30.803Z,118.60
2018-04-16T08:09:01.192Z,138.20
2018-04-16T08:11:30.263Z,116.53
2018-04-16T08:13:59.249Z,105.37
2018-04-16T08:16:28.344Z,134.10
2018-04-16T08:18:58.443Z,147.37
2018-04-16T08:21:27.338Z,129.40
2018-04-16T08:23:57.362Z,123.17
2018-04-16T08:26:27.239Z,112.47
2018-04-16T08:29:00.095Z,99.07
2018-04-16T08:31:29.115Z,100.57
2018-04-16T08:33:59.068Z,110.37
2018-04-16T08:36:28.052Z,109.87
2018-04-16T08:38:58.233Z,113.37
2018-04-16T08:41:26.698Z,106.37
2018-04-16T08:43:55.487Z,93.50
2018-04-16T08:46:24.627Z,116.47
2018-04-16T08:48:53.444Z,162.17
2018-04-16T08:51:21.952Z,111.83
2018-04-16T08:53:51.464Z,117.63
2018-04-16T08:56:20.048Z,121.20
2018-04-16T08:58:49.114Z,145.20
2018-04-16T09:01:17.688Z,120.87
2018-04-16T09:03:48.578Z,135.90
2018-04-16T09:06:18.076Z,167.97
2018-04-16T09:09:00.365Z,178.77
2018-04-16T09:11:31.842Z,115.17
2018-04-16T09:14:00.906Z,153.30
2018-04-16T09:16:33.349Z,160.87
2018-04-16T09:19:01.923Z,164.63
2018-04-16T09:21:34.177Z,166.00
2018-04-16T09:24:03.072Z,173.43
2018-04-16T09:26:35.808Z,211.73
2018-04-16T09:29:04.190Z,204.20
2018-04-16T09:31:46.558Z,121.17
2018-04-16T09:34:16.262Z,132.20
2018-04-16T09:36:44.539Z,161.77
2018-04-16T09:39:17.360Z,180.50
2018-04-16T09:41:46.537Z,138.03
2018-04-16T09:44:16.708Z,99.37
2018-04-16T09:47:02.715Z,127.50
2018-04-16T09:49:31.375Z,114.40
2018-04-16T09:51:59.717Z,139.50
2018-04-16T09:54:32.334Z,109.83
2018-04-16T09:57:01.239Z,115.57
2018-04-16T09:59:30.713Z,90.27
2018-04-16T10:01:59.483Z,138.83
2018-04-16T10:04:31.626Z,110.37
2018-04-16T10:07:00.413Z,123.73
2018-04-16T10:09:31.710Z,132.03
2018-04-16T10:12:00.216Z,120.70
2018-04-16T10:14:32.916Z,126.03
2018-04-16T10:17:01.223Z,149.03
2018-04-16T10:19:31.522Z,152.93
2018-04-16T10:21:59.882Z,87.73
2018-04-16T10:24:30.410Z,114.87
2018-04-16T10:26:58.758Z,144.27
2018-04-16T10:29:30.483Z,113.60
2018-04-16T10:31:59.246Z,130.43
2018-04-16T10:34:29.496Z,121.13
2018-04-16T10:37:11.206Z,156.67
2018-04-16T10:39:40.061Z,131.93
2018-04-16T10:42:09.323Z,139.03
2018-04-16T10:44:39.920Z,140.17
2018-04-16T10:47:08.252Z,128.50
2018-04-16T10:49:38.627Z,139.43
2018-04-16T10:52:08.007Z,182.57
2018-04-16T10:54:37.150Z,134.10
2018-04-16T10:57:05.741Z,156.17
2018-04-16T10:59:34.718Z,183.50
2018-04-16T11:02:03.111Z,145.87
2018-04-16T11:04:39.977Z,143.50
2018-04-16T11:07:08.748Z,153.57
2018-04-16T11:09:38.671Z,136.67
2018-04-16T11:12:17.984Z,151.60
2018-04-16T11:14:46.633Z,110.17
2018-04-16T11:17:24.872Z,126.87
2018-04-16T11:19:59.637Z,144.90
2018-04-16T11:22:42.947Z,135.33
2018-04-16T11:25:13.461Z,136.33
2018-04-16T11:27:42.031Z,148.37
2018-04-16T11:30:12.743Z,132.67
2018-04-16T11:32:42.766Z,130.50
2018-04-16T11:35:12.130Z,136.13
2018-04-16T11:37:40.733Z,136.83
2018-04-16T11:40:18.507Z,161.07
2018-04-16T11:42:46.849Z,128.83
2018-04-16T11:45:17.547Z,139.03
2018-04-16T11:47:46.273Z,145.53
2018-04-16T11:50:14.589Z,128.83
2018-04-16T11:52:45.102Z,139.90
2018-04-16T11:55:13.763Z,159.40
2018-04-16T11:57:43.361Z,124.20
2018-04-16T12:00:12.400Z,105.73
2018-04-16T12:02:41.869Z,139.77
2018-04-16T12:07:57.452Z,149.90
2018-04-16T12:10:27.124Z,101.47
2018-04-16T12:12:55.645Z,168.33
2018-04-16T12:15:33.579Z,143.17
2018-04-16T12:18:02.611Z,143.47
2018-04-16T12:20:48.987Z,176.17
2018-04-16T12:23:23.301Z,148.67
2018-04-16T12:25:53.279Z,111.40
2018-04-16T12:28:21.637Z,136.37
2018-04-16T12:31:01.156Z,124.73
2018-04-16T12:33:30.163Z,152.83
2018-04-16T12:36:00.165Z,150.67
2018-04-16T12:38:28.730Z,112.50
2018-04-16T12:40:59.216Z,160.60
2018-04-16T12:43:27.728Z,165.83
2018-04-16T12:45:56.969Z,165.53
2018-04-16T12:48:31.635Z,171.17
2018-04-16T12:51:01.695Z,166.73
2018-04-16T12:53:30.224Z,135.20
2018-04-16T12:56:00.115Z,169.90
2018-04-16T12:58:36.630Z,166.60
2018-04-16T13:01:13.141Z,161.20
2018-04-16T13:03:45.635Z,149.20
2018-04-16T13:06:14.107Z,162.77
2018-04-16T13:08:47.095Z,169.20
2018-04-16T13:11:17.931Z,113.67
2018-04-16T13:13:56.907Z,206.40
2018-04-16T13:16:25.557Z,126.27
2018-04-16T13:18:53.916Z,213.87
2018-04-16T13:21:28.289Z,175.43
2018-04-16T13:23:56.714Z,137.27
2018-04-16T13:26:29.240Z,189.57
2018-04-16T13:28:57.642Z,205.27
2018-04-16T13:31:26.149Z,214.17
2018-04-16T13:33:56.520Z,166.10
2018-04-16T13:36:25.068Z,233.60
2018-04-16T13:41:40.112Z,184.03
2018-04-16T13:44:23.292Z,126.77
2018-04-16T22:36:04.963Z,54.07
2018-04-16T22:38:34.704Z,53.57
2018-04-16T22:41:07.973Z,51.73
2018-04-16T22:43:36.980Z,57.97
2018-04-16T22:46:18.047Z,62.77
2018-04-16T22:48:48.149Z,66.33
2018-04-16T22:51:16.477Z,59.97
2018-04-16T22:53:46.809Z,60.40
2018-04-16T22:56:15.093Z,69.33
2018-04-16T22:58:45.397Z,62.13
2018-04-16T23:01:13.725Z,67.43
2018-04-16T23:03:43.337Z,64.53
2018-04-16T23:06:11.779Z,62.43
2018-04-16T23:08:40.955Z,62.63
2018-04-16T23:11:09.236Z,63.87
2018-04-16T23:13:39.954Z,65.53
2018-04-16T23:16:08.256Z,62.13
2018-04-16T23:18:38.423Z,64.30
2018-04-16T23:21:06.796Z,64.63
2018-04-16T23:23:35.978Z,62.77
2018-04-16T23:26:05.023Z,66.70
2018-04-16T23:28:33.245Z,71.30
2018-04-16T23:31:04.177Z,67.70
2018-04-16T23:33:32.727Z,63.97
2018-04-16T23:36:03.761Z,66.53
2018-04-16T23:38:32.797Z,68.57
2018-04-16T23:41:01.177Z,74.77
2018-04-16T23:43:29.648Z,64.23
2018-04-16T23:45:58.349Z,61.97
2018-04-16T23:48:27.615Z,59.90
2018-04-16T23:50:57.841Z,66.27
2018-04-16T23:53:27.224Z,65.50
2018-04-16T23:55:57.613Z,66.03
2018-04-16T23:58:26.317Z,57.00
